Time;durP1;ratioP1;P1;durP2;ratioP2;P2;SDS_P1;SDS_P2;PMS_P1;PMS_P2;Temp;Humidity;BMP_temperature;BMP_pressure;BME280_temperature;BME280_humidity;BME280_pressure;Samples;Min_cycle;Max_cycle;Signal;HPM_P1;HPM_P2
2021/03/02 00:00:06;;;;;;;13.53;7.45;;;;;;;4.13;69.41;101852.05;1758229;79;21132;-50
2021/03/02 00:02:34;;;;;;;13.78;6.75;;;;;;;4.14;69.36;101843.26;1742335;80;21138;-46
2021/03/02 00:05:03;;;;;;;11.18;5.53;;;;;;;4.16;69.38;101840.16;1694201;82;21161;-47
2021/03/02 00:07:31;;;;;;;11.43;6.40;;;;;;;4.18;69.35;101836.16;1766123;79;21130;-43
2021/03/02 00:09:59;;;;;;;10.63;5.45;;;;;;;4.18;69.29;101834.39;1759881;80;21114;-44
2021/03/02 00:12:28;;;;;;;7.28;4.58;;;;;;;4.18;69.21;101825.15;1765251;80;21581;-46
2021/03/02 00:14:56;;;;;;;8.83;4.78;;;;;;;4.17;69.09;101819.91;1719946;82;21574;-46
2021/03/02 00:17:48;;;;;;;6.80;4.40;;;;;;;4.16;68.99;101819.03;1762981;80;21589;-45
2021/03/02 00:20:22;;;;;;;7.40;4.83;;;;;;;4.15;68.99;101808.48;1764278;79;21153;-46
2021/03/02 00:23:07;;;;;;;7.58;4.70;;;;;;;4.14;68.91;101808.06;1756936;80;21146;-44
2021/03/02 00:25:39;;;;;;;6.83;4.53;;;;;;;4.14;68.88;101797.50;1762810;80;21110;-46
2021/03/02 00:28:09;;;;;;;7.58;4.25;;;;;;;4.13;68.83;101793.95;1757215;80;21150;-44
2021/03/02 00:30:37;;;;;;;6.72;4.75;;;;;;;4.13;68.78;101788.67;1762213;80;21130;-45
2021/03/02 00:33:06;;;;;;;7.42;4.70;;;;;;;4.11;68.79;101792.67;1761949;80;21896;-45
2021/03/02 00:35:34;;;;;;;6.45;4.15;;;;;;;4.09;68.75;101794.45;1763301;80;21174;-43
2021/03/02 00:38:03;;;;;;;7.50;4.22;;;;;;;4.10;68.79;101781.67;1763357;80;21133;-48
2021/03/02 00:40:30;;;;;;;8.18;4.50;;;;;;;4.12;68.80;101775.06;1771189;80;21150;-44
2021/03/02 00:42:58;;;;;;;8.25;4.62;;;;;;;4.12;68.77;101769.33;1709160;82;21130;-44
2021/03/02 00:45:26;;;;;;;6.85;4.47;;;;;;;4.12;68.75;101753.48;1759370;79;21130;-45
2021/03/02 00:47:54;;;;;;;6.28;4.55;;;;;;;4.11;68.68;101754.39;1756180;80;21155;-45
2021/03/02 00:50:24;;;;;;;6.72;4.15;;;;;;;4.10;68.63;101747.34;1765349;79;21136;-45
2021/03/02 00:52:52;;;;;;;5.87;3.42;;;;;;;4.08;68.70;101746.52;1762923;80;21138;-44
2021/03/02 00:55:22;;;;;;;6.42;3.40;;;;;;;4.08;68.71;101735.95;1759130;80;21629;-44
2021/03/02 00:57:50;;;;;;;4.72;3.27;;;;;;;4.08;68.73;101732.00;1760945;80;21134;-44
2021/03/02 01:00:20;;;;;;;4.05;2.67;;;;;;;4.10;68.73;101731.50;1765716;80;21158;-43
2021/03/02 01:02:48;;;;;;;5.03;2.98;;;;;;;4.12;68.57;101722.25;1767120;80;21593;-44
2021/03/02 01:05:16;;;;;;;4.67;2.17;;;;;;;4.08;68.54;101721.44;1769220;80;21126;-45
2021/03/02 01:07:44;;;;;;;6.72;2.90;;;;;;;4.08;68.62;101719.21;1765047;80;21146;-44
2021/03/02 01:10:14;;;;;;;4.80;3.00;;;;;;;4.09;68.59;101722.30;1763089;80;21565;-45
2021/03/02 01:12:43;;;;;;;6.37;3.37;;;;;;;4.07;68.58;101717.03;1757777;80;21106;-45
2021/03/02 01:15:12;;;;;;;6.05;3.20;;;;;;;4.05;68.56;101710.02;1765986;80;21133;-43
2021/03/02 01:17:40;;;;;;;4.67;3.35;;;;;;;4.02;68.64;101699.05;1763837;79;21099;-45
2021/03/02 01:20:09;;;;;;;5.08;3.15;;;;;;;4.01;68.65;101698.63;1730816;81;21182;-45
2021/03/02 01:22:39;;;;;;;4.65;2.80;;;;;;;4.00;68.63;101701.28;1707207;82;21154;-43
2021/03/02 01:25:12;;;;;;;5.67;2.92;;;;;;;3.98;68.69;101701.73;1770605;79;21141;-44
2021/03/02 01:27:40;;;;;;;8.55;3.58;;;;;;;3.96;68.76;101698.27;1764412;79;21130;-46
2021/03/02 01:30:09;;;;;;;4.08;2.42;;;;;;;3.96;68.83;101696.95;1745210;80;21414;-45
2021/03/02 01:32:39;;;;;;;5.60;2.30;;;;;;;3.95;68.86;101689.91;1773404;79;21430;-45
2021/03/02 01:35:09;;;;;;;3.95;2.65;;;;;;;3.95;68.85;101688.58;1761521;79;21162;-46
2021/03/02 01:37:37;;;;;;;6.03;2.95;;;;;;;3.94;68.85;101685.08;1764411;79;21146;-44
2021/03/02 01:40:10;;;;;;;5.30;3.05;;;;;;;3.95;68.90;101680.21;1709974;82;21193;-44
2021/03/02 01:42:40;;;;;;;6.67;4.08;;;;;;;3.95;68.87;101678.02;1767662;79;21122;-44
2021/03/02 01:45:10;;;;;;;7.08;3.77;;;;;;;3.97;68.87;101672.29;1771941;79;21111;-45
2021/03/02 01:47:39;;;;;;;5.47;3.50;;;;;;;3.94;68.88;101674.52;1772680;79;21941;-46
2021/03/02 01:50:09;;;;;;;4.92;2.92;;;;;;;3.92;68.91;101668.38;1766792;79;21101;-47
2021/03/02 01:52:36;;;;;;;3.70;2.52;;;;;;;3.90;68.95;101663.56;1767986;79;21153;-46
2021/03/02 01:55:06;;;;;;;6.95;3.25;;;;;;;3.89;68.98;101653.45;1772154;79;21173;-46
2021/03/02 01:57:33;;;;;;;5.47;3.37;;;;;;;3.90;69.00;101641.13;1773783;80;21138;-44
2021/03/02 02:00:22;;;;;;;6.28;3.40;;;;;;;3.92;69.01;101639.34;1777657;80;21137;-43
2021/03/02 02:03:28;;;;;;;5.75;3.58;;;;;;;3.90;68.99;101634.52;1768557;79;21114;-49
2021/03/02 02:06:19;;;;;;;5.10;3.40;;;;;;;3.86;69.02;101626.24;1768787;79;21149;-47
2021/03/02 02:09:26;;;;;;;5.85;3.90;;;;;;;3.84;69.10;101626.25;1764836;79;21151;-47
2021/03/02 02:12:22;;;;;;;5.92;3.30;;;;;;;3.81;69.11;101619.70;1772400;79;21122;-45
2021/03/02 02:15:04;;;;;;;5.45;2.92;;;;;;;3.78;69.13;101621.06;1771692;79;21543;-46
2021/03/02 02:17:58;;;;;;;6.08;3.52;;;;;;;3.76;69.20;101614.92;1767152;79;21137;-46
2021/03/02 02:20:49;;;;;;;5.17;3.22;;;;;;;3.76;69.23;101608.78;1768499;79;21524;-46
2021/03/02 02:23:20;;;;;;;;;;;;;;;3.74;69.26;101611.88;1772833;79;21125;-46
2021/03/02 02:26:17;;;;;;;5.67;3.27;;;;;;;3.73;69.34;101599.14;1767033;80;20165;-46
2021/03/02 02:28:44;;;;;;;6.70;3.60;;;;;;;3.74;69.34;101603.96;1679681;83;21632;-46
2021/03/02 02:31:12;;;;;;;6.45;3.25;;;;;;;3.72;69.34;101607.92;1654583;84;21170;-46
2021/03/02 02:33:41;;;;;;;4.12;2.67;;;;;;;3.69;69.35;101601.38;1649747;82;21162;-47
2021/03/02 02:36:11;;;;;;;5.87;2.80;;;;;;;3.66;69.47;101594.83;1749200;80;21560;-47
2021/03/02 02:38:42;;;;;;;5.17;3.05;;;;;;;3.65;69.49;101591.73;1742156;80;21178;-45
2021/03/02 02:41:10;;;;;;;4.35;2.92;;;;;;;3.63;69.59;101588.27;1736262;80;21169;-46
2021/03/02 02:43:38;;;;;;;5.65;3.55;;;;;;;3.63;69.62;101583.00;1719715;80;21114;-46
2021/03/02 02:46:05;;;;;;;9.45;6.12;;;;;;;3.61;69.66;101576.41;1750984;80;21139;-46
2021/03/02 02:48:33;;;;;;;4.95;3.10;;;;;;;3.62;70.44;101583.88;1716418;80;21157;-46
2021/03/02 02:51:01;;;;;;;7.45;3.83;;;;;;;3.63;70.37;101586.95;1737730;80;21215;-46
2021/03/02 02:53:31;;;;;;;7.00;3.20;;;;;;;3.66;70.23;101584.27;1741792;80;21161;-48
2021/03/02 02:56:00;;;;;;;5.42;3.47;;;;;;;3.67;70.09;101592.14;1747648;80;21581;-43
2021/03/02 02:58:35;;;;;;;4.50;3.20;;;;;;;3.68;69.96;101589.95;1742866;80;21137;-41
2021/03/02 03:01:03;;;;;;;4.97;2.55;;;;;;;3.67;69.90;101574.12;1745984;80;21598;-45
2021/03/02 03:03:35;;;;;;;5.87;3.25;;;;;;;3.64;69.94;101567.58;1752446;80;21162;-46
2021/03/02 03:06:05;;;;;;;5.53;3.42;;;;;;;3.64;69.93;101565.81;1744628;80;21157;-46
2021/03/02 03:08:33;;;;;;;5.33;3.65;;;;;;;3.63;69.91;101567.17;1739648;80;21173;-46
2021/03/02 03:11:03;;;;;;;5.50;3.70;;;;;;;3.60;69.95;101553.98;1743236;80;21145;-44
2021/03/02 03:13:36;;;;;;;6.72;3.52;;;;;;;3.56;70.00;101557.12;1738739;80;21491;-45
2021/03/02 03:16:06;;;;;;;5.95;3.33;;;;;;;3.52;70.00;101557.17;1741909;80;21687;-48
2021/03/02 03:18:57;;;;;;;5.72;3.80;;;;;;;3.45;70.14;101549.36;1745567;80;21272;-46
2021/03/02 03:21:25;;;;;;;5.30;3.60;;;;;;;3.41;70.28;101546.77;1704897;80;21146;-48
2021/03/02 03:23:52;;;;;;;5.62;3.58;;;;;;;3.36;70.41;101548.59;1740866;80;21591;-45
2021/03/02 03:26:23;;;;;;;5.50;3.70;;;;;;;3.35;70.51;101549.45;1703585;80;21134;-44
2021/03/02 03:28:52;;;;;;;;;;;;;;;3.37;70.53;101551.64;1757487;80;21146;-42
2021/03/02 03:31:20;;;;;;;6.85;4.12;;;;;;;3.37;70.56;101546.36;1757058;80;20513;-46
2021/03/02 03:33:47;;;;;;;6.50;4.28;;;;;;;3.35;70.57;101545.08;1770689;79;21299;-48
2021/03/02 03:36:15;;;;;;;5.50;3.75;;;;;;;3.31;70.65;101546.45;1747614;79;21311;-46
2021/03/02 03:38:43;;;;;;;7.10;4.25;;;;;;;3.30;70.72;101528.86;1773908;79;21162;-45
2021/03/02 03:41:14;;;;;;;6.25;3.90;;;;;;;3.29;70.80;101533.27;1771812;79;21557;-44
2021/03/02 03:43:42;;;;;;;;;;;;;;;3.28;70.85;101528.04;1774538;79;21135;-45
2021/03/02 03:46:09;;;;;;;5.53;4.15;;;;;;;3.24;70.89;101518.81;1766650;79;20548;-46
2021/03/02 03:48:37;;;;;;;6.97;4.75;;;;;;;3.22;70.95;101522.36;1770508;79;21133;-44
2021/03/02 03:51:05;;;;;;;8.65;4.85;;;;;;;3.19;71.04;101521.09;1772547;79;21125;-44
2021/03/02 03:53:35;;;;;;;6.85;4.53;;;;;;;3.16;71.11;101515.41;1770159;79;21578;-42
2021/03/02 03:56:05;;;;;;;6.47;4.00;;;;;;;3.15;71.17;101514.09;1743766;80;21154;-46
2021/03/02 03:58:32;;;;;;;6.87;4.75;;;;;;;3.12;71.20;101518.09;1767114;79;21165;-51
2021/03/02 04:01:03;;;;;;;8.45;5.15;;;;;;;3.07;71.30;101524.73;1767639;79;21157;-45
2021/03/02 04:03:33;;;;;;;6.67;5.33;;;;;;;3.01;71.41;101516.90;1766320;79;21113;-47
2021/03/02 04:06:01;;;;;;;7.70;5.33;;;;;;;2.95;71.55;101523.12;1769422;79;21150;-47
2021/03/02 04:08:29;;;;;;;5.85;4.28;;;;;;;2.93;71.73;101510.84;1774055;79;21165;-49
2021/03/02 04:10:58;;;;;;;5.42;3.72;;;;;;;2.91;71.87;101523.16;1764340;79;21546;-44
2021/03/02 04:13:26;;;;;;;5.42;4.62;;;;;;;2.90;71.96;101524.93;1736331;80;21150;-43
2021/03/02 04:15:57;;;;;;;7.35;4.83;;;;;;;2.88;72.09;101522.75;1771336;79;21149;-49
2021/03/02 04:18:25;;;;;;;6.78;4.65;;;;;;;2.88;72.15;101514.84;1742548;79;21114;-46
2021/03/02 04:20:52;;;;;;;7.60;6.15;;;;;;;2.93;72.15;101509.08;1764486;79;21137;-45
2021/03/02 04:23:21;;;;;;;7.72;5.70;;;;;;;2.98;72.13;101509.03;1768458;80;21098;-47
2021/03/02 04:25:48;;;;;;;8.70;6.65;;;;;;;3.01;72.09;101511.63;1778031;79;21146;-43
2021/03/02 04:28:16;;;;;;;9.50;6.08;;;;;;;2.97;72.21;101505.53;1768419;79;21105;-44
2021/03/02 04:30:44;;;;;;;7.30;5.05;;;;;;;2.96;72.44;101507.72;1771333;79;21149;-46
2021/03/02 04:33:13;;;;;;;6.67;4.72;;;;;;;2.90;72.40;101513.48;1767577;79;21201;-44
2021/03/02 04:35:41;;;;;;;9.03;5.97;;;;;;;2.83;72.54;101513.16;1760761;80;21170;-42
2021/03/02 04:38:09;;;;;;;9.18;6.62;;;;;;;2.79;72.66;101509.66;1760712;80;21161;-46
2021/03/02 04:40:37;;;;;;;6.70;5.72;;;;;;;2.77;72.86;101514.06;1767637;80;21308;-46
2021/03/02 04:43:06;;;;;;;10.78;6.35;;;;;;;2.70;73.07;101509.31;1729243;81;21166;-43
2021/03/02 04:45:35;;;;;;;8.30;6.72;;;;;;;2.64;73.21;101501.91;1766787;80;21563;-45
2021/03/02 04:48:04;;;;;;;9.48;6.45;;;;;;;2.59;73.46;101496.22;1704275;82;21146;-50
2021/03/02 04:50:32;;;;;;;7.78;5.80;;;;;;;2.60;73.47;101508.53;1742472;80;21125;-47
2021/03/02 04:53:00;;;;;;;10.03;6.62;;;;;;;2.61;73.49;101500.17;1760804;79;21295;-45
2021/03/02 04:55:28;;;;;;;7.55;5.55;;;;;;;2.59;73.52;101508.53;1764503;80;21417;-44
2021/03/02 04:57:55;;;;;;;9.05;6.12;;;;;;;2.59;73.63;101515.11;1759144;79;21165;-44
2021/03/02 05:00:24;;;;;;;9.50;5.55;;;;;;;2.58;73.63;101516.88;1758113;80;21131;-44
2021/03/02 05:02:51;;;;;;;7.78;5.80;;;;;;;2.62;73.67;101512.89;1766013;80;21165;-43
2021/03/02 05:05:19;;;;;;;8.33;5.28;;;;;;;2.71;73.60;101512.81;1763088;80;21165;-43
2021/03/02 05:07:46;;;;;;;8.33;6.42;;;;;;;2.78;73.46;101516.69;1762757;80;21134;-44
2021/03/02 05:10:14;;;;;;;8.18;6.08;;;;;;;2.81;73.30;101506.12;1764992;80;21130;-43
2021/03/02 05:12:42;;;;;;;8.35;6.22;;;;;;;2.82;73.18;101508.30;1761811;80;21143;-44
2021/03/02 05:15:10;;;;;;;11.53;8.45;;;;;;;2.80;73.15;101503.06;1767104;80;21134;-44
2021/03/02 05:17:38;;;;;;;8.85;7.10;;;;;;;2.79;73.13;101509.20;1764138;80;21134;-42
2021/03/02 05:20:09;;;;;;;9.83;6.58;;;;;;;2.74;73.23;101496.52;1761973;80;21126;-43
2021/03/02 05:22:37;;;;;;;9.48;7.20;;;;;;;2.74;73.25;101503.56;1763696;80;21150;-41
2021/03/02 05:25:06;;;;;;;9.23;6.70;;;;;;;2.77;73.34;101504.42;1758409;80;21134;-43
2021/03/02 05:27:34;;;;;;;12.03;8.10;;;;;;;2.71;73.32;101496.56;1763983;80;21142;-51
2021/03/02 05:30:03;;;;;;;11.90;7.40;;;;;;;2.67;73.50;101500.14;1762063;80;21158;-42
2021/03/02 05:32:31;;;;;;;10.68;8.38;;;;;;;2.68;73.62;101501.00;1761552;80;21162;-47
2021/03/02 05:34:58;;;;;;;11.55;9.15;;;;;;;2.71;73.68;101500.52;1765243;80;21526;-43
2021/03/02 05:37:26;;;;;;;8.73;6.97;;;;;;;2.77;73.64;101503.11;1760773;79;21153;-43
2021/03/02 05:39:53;;;;;;;11.63;8.38;;;;;;;2.80;73.50;101499.11;1761343;80;21577;-42
2021/03/02 05:42:21;;;;;;;13.53;10.18;;;;;;;2.84;73.45;101490.72;1732970;81;21197;-42
2021/03/02 05:44:48;;;;;;;15.15;10.03;;;;;;;2.85;73.36;101495.54;1772261;79;21157;-45
2021/03/02 05:47:16;;;;;;;12.90;8.78;;;;;;;2.83;73.31;101490.76;1769539;79;21113;-44
2021/03/02 05:49:44;;;;;;;13.08;8.98;;;;;;;2.81;73.36;101482.86;1771943;79;21126;-42
2021/03/02 05:52:12;;;;;;;15.75;8.35;;;;;;;2.79;73.40;101488.13;1773015;79;21136;-43
2021/03/02 05:54:40;;;;;;;12.10;9.08;;;;;;;2.76;73.44;101495.20;1767285;80;21129;-43
2021/03/02 05:57:07;;;;;;;14.85;10.40;;;;;;;2.73;73.51;101491.29;1773684;79;21137;-43
2021/03/02 05:59:35;;;;;;;14.65;9.50;;;;;;;2.72;73.65;101492.16;1770317;80;21149;-44
2021/03/02 06:02:03;;;;;;;14.20;10.18;;;;;;;2.72;73.76;101477.67;1766174;79;21166;-44
2021/03/02 06:04:31;;;;;;;16.32;11.65;;;;;;;2.69;73.76;101486.48;1769631;80;21137;-42
2021/03/02 06:07:02;;;;;;;16.00;11.85;;;;;;;2.71;73.84;101482.08;1769333;79;21162;-43
2021/03/02 06:09:30;;;;;;;;;;;;;;;2.68;73.87;101483.88;1775864;80;21656;-47
2021/03/02 06:12:05;;;;;;;18.77;12.00;;;;;;;2.66;73.95;101477.75;1772112;79;20254;-42
2021/03/02 06:14:34;;;;;;;15.80;12.10;;;;;;;2.68;73.98;101475.98;1776898;80;21141;-42
2021/03/02 06:17:03;;;;;;;18.77;11.70;;;;;;;2.69;74.03;101489.11;1710040;83;21169;-43
2021/03/02 06:19:45;;;;;;;16.65;11.97;;;;;;;2.68;74.13;101479.48;1766576;79;21143;-43
2021/03/02 06:22:37;;;;;;;16.77;11.43;;;;;;;2.69;74.11;101485.61;1769326;80;21157;-42
2021/03/02 06:25:07;;;;;;;15.13;10.85;;;;;;;2.72;74.11;101493.48;1668056;84;21172;-42
2021/03/02 06:27:38;;;;;;;16.95;12.88;;;;;;;2.73;74.22;101480.30;1703042;83;21165;-45
2021/03/02 06:30:16;;;;;;;19.65;12.50;;;;;;;2.78;74.07;101481.13;1698823;83;21852;-51
2021/03/02 06:32:48;;;;;;;18.98;12.68;;;;;;;2.78;73.99;101482.45;1698520;83;21596;-43
2021/03/02 06:35:42;;;;;;;18.32;12.58;;;;;;;2.80;73.99;101472.77;1724249;82;21605;-44
2021/03/02 06:38:09;;;;;;;18.20;13.55;;;;;;;2.84;74.01;101471.41;1703103;83;21166;-44
2021/03/02 06:40:42;;;;;;;19.48;12.70;;;;;;;2.86;73.83;101470.50;1661832;84;21173;-52
2021/03/02 06:43:36;;;;;;;16.73;12.68;;;;;;;2.86;73.80;101466.55;1724762;81;21127;-44
2021/03/02 06:46:07;;;;;;;20.88;12.58;;;;;;;2.91;73.74;101465.19;1679611;83;21165;-44
2021/03/02 06:49:00;;;;;;;20.00;15.40;;;;;;;2.93;73.51;101469.55;1780772;77;28088;-43
2021/03/02 06:51:29;;;;;;;18.17;14.03;;;;;;;2.84;73.64;101476.68;1768022;80;21149;-43
2021/03/02 06:54:11;;;;;;;22.22;14.10;;;;;;;2.86;73.63;101469.19;1770487;79;21169;-43
2021/03/02 06:56:39;;;;;;;16.45;11.38;;;;;;;2.86;73.66;101470.95;1772415;79;21108;-44
2021/03/02 06:59:18;;;;;;;18.40;12.53;;;;;;;2.84;73.73;101473.59;1771891;79;22067;-46
2021/03/02 07:01:47;;;;;;;21.60;14.15;;;;;;;2.87;73.73;101469.60;1767793;79;21136;-41
2021/03/02 07:04:19;;;;;;;17.85;12.33;;;;;;;2.86;73.74;101478.86;1763857;79;21129;-43
2021/03/02 07:06:51;;;;;;;19.12;13.35;;;;;;;2.83;73.78;101479.77;1751670;80;21121;-41
2021/03/02 07:09:16;;;;;;;21.97;14.38;;;;;;;2.86;73.80;101482.81;1751146;80;21133;-45
2021/03/02 07:11:44;;;;;;;19.42;13.08;;;;;;;2.86;73.86;101476.22;1746676;80;21145;-43
2021/03/02 07:14:13;;;;;;;19.90;13.20;;;;;;;2.88;73.83;101474.45;1749766;80;21163;-43
2021/03/02 07:16:44;;;;;;;18.30;13.43;;;;;;;2.91;73.77;101477.05;1748269;80;21129;-45
2021/03/02 07:19:19;;;;;;;24.37;12.82;;;;;;;2.91;73.77;101470.46;1747595;80;21195;-42
2021/03/02 07:21:50;;;;;;;21.60;14.53;;;;;;;2.94;73.81;101475.23;1751770;80;21448;-45
2021/03/02 07:24:19;;;;;;;18.90;12.73;;;;;;;2.98;73.65;101471.69;1684769;83;21135;-45
2021/03/02 07:26:47;;;;;;;20.02;12.40;;;;;;;3.00;73.62;101486.18;1689606;83;21181;-45
2021/03/02 07:29:14;;;;;;;23.60;15.15;;;;;;;3.00;73.59;101476.50;1689254;83;21153;-45
2021/03/02 07:31:42;;;;;;;19.07;11.90;;;;;;;3.01;73.56;101474.73;1687880;83;21601;-42
2021/03/02 07:34:11;;;;;;;23.20;14.93;;;;;;;3.00;73.54;101481.77;1691647;83;21125;-41
2021/03/02 07:36:42;;;;;;;23.30;15.63;;;;;;;2.99;73.52;101482.64;1682064;83;21585;-41
2021/03/02 07:39:23;;;;;;;19.93;14.20;;;;;;;3.00;73.56;101473.00;1688859;83;21283;-42
2021/03/02 07:41:54;;;;;;;21.42;12.25;;;;;;;3.02;73.55;101468.55;1690144;83;21291;-45
2021/03/02 07:44:21;;;;;;;17.77;11.85;;;;;;;3.03;73.43;101469.88;1689034;83;21163;-46
2021/03/02 07:46:57;;;;;;;18.52;12.70;;;;;;;3.03;73.31;101470.32;1688982;83;21323;-45
2021/03/02 07:49:53;;;;;;;20.08;12.73;;;;;;;3.01;73.28;101483.95;1737255;81;21106;-47
2021/03/02 07:52:26;;;;;;;24.12;14.15;;;;;;;2.97;73.37;101466.00;1650874;85;21548;-48
2021/03/02 07:55:16;;;;;;;19.95;13.28;;;;;;;2.95;73.59;101464.27;1653566;85;21182;-41
2021/03/02 07:57:45;;;;;;;24.18;14.78;;;;;;;2.96;73.54;101455.47;1652036;85;21898;-43
2021/03/02 08:00:52;;;;;;;27.35;14.05;;;;;;;2.96;73.37;101447.11;1652799;85;21193;-41
2021/03/02 08:04:30;;;;;;;20.57;12.58;;;;;;;2.91;73.41;101442.79;1571008;89;21352;-44
2021/03/02 08:07:24;;;;;;;20.70;12.90;;;;;;;2.89;73.60;101430.94;1876057;74;22944;-44
2021/03/02 08:10:14;;;;;;;22.00;14.18;;;;;;;2.83;73.64;101431.02;1850498;75;21542;-45
2021/03/02 08:12:41;;;;;;;21.80;13.08;;;;;;;2.85;73.70;101420.45;1839024;75;21593;-45
2021/03/02 08:15:20;;;;;;;28.10;16.05;;;;;;;2.91;73.66;101434.89;1845892;75;21449;-44
2021/03/02 08:17:48;;;;;;;24.47;15.13;;;;;;;2.90;73.47;101424.80;1851473;76;21091;-45
2021/03/02 08:20:16;;;;;;;24.12;14.25;;;;;;;2.88;73.57;101420.44;1846638;76;21627;-42
2021/03/02 08:22:45;;;;;;;21.87;12.93;;;;;;;2.92;73.58;101420.81;1850753;75;21089;-44
2021/03/02 08:25:27;;;;;;;26.35;14.10;;;;;;;2.95;73.35;101406.30;1846432;76;21116;-44
2021/03/02 08:28:00;;;;;;;28.15;16.25;;;;;;;2.96;73.29;101406.27;1843965;76;21133;-43
2021/03/02 08:30:37;;;;;;;27.13;16.85;;;;;;;2.97;73.19;101414.61;1844973;76;22004;-42
2021/03/02 08:33:13;;;;;;;28.42;15.80;;;;;;;2.96;73.26;101422.52;1844106;76;21129;-41
2021/03/02 08:35:42;;;;;;;26.05;16.05;;;;;;;2.99;73.28;101410.63;1845317;76;21673;-41
2021/03/02 08:38:13;;;;;;;26.00;14.98;;;;;;;3.05;73.24;101410.56;1849918;76;21105;-42
2021/03/02 08:40:45;;;;;;;36.53;18.23;;;;;;;3.13;73.12;101402.55;1852814;75;21129;-42
2021/03/02 08:43:23;;;;;;;31.02;17.20;;;;;;;3.13;72.73;101403.42;1847318;75;21549;-45
2021/03/02 08:45:57;;;;;;;30.27;17.70;;;;;;;3.08;72.80;101403.06;1847461;76;21098;-45
2021/03/02 08:48:29;;;;;;;30.90;16.40;;;;;;;3.08;72.72;101410.97;1843544;76;21113;-48
2021/03/02 08:50:59;;;;;;;;;;;;;;;3.07;72.59;101410.52;1849395;76;21138;-45
2021/03/02 08:53:45;;;;;;;27.60;17.32;;;;;;;3.01;72.70;101398.30;1848974;75;20162;-43
2021/03/02 08:56:24;;;;;;;31.15;17.02;;;;;;;2.96;72.84;101397.04;1846618;75;21121;-45
2021/03/02 08:59:05;;;;;;;33.48;17.42;;;;;;;2.96;72.94;101386.50;1848945;76;21124;-43
2021/03/02 09:01:37;;;;;;;;;;;;;;;2.98;72.99;101401.85;1836298;76;22174;-47
2021/03/02 09:04:10;;;;;;;31.10;16.75;;;;;;;3.03;72.99;101413.20;1847789;76;20425;-42
2021/03/02 09:06:49;;;;;;;37.33;17.70;;;;;;;3.04;72.97;101409.66;1842841;76;21122;-49
2021/03/02 09:09:24;;;;;;;37.73;18.32;;;;;;;3.04;72.95;101396.48;1799585;78;22867;-45
2021/03/02 09:11:57;;;;;;;30.95;17.82;;;;;;;3.00;72.96;101402.71;1775995;79;21149;-44
2021/03/02 09:14:30;;;;;;;30.17;18.20;;;;;;;2.99;73.07;101402.72;1775016;79;21157;-44
2021/03/02 09:16:59;;;;;;;30.02;16.55;;;;;;;3.01;73.07;101403.58;1776794;79;21526;-43
2021/03/02 09:19:34;;;;;;;32.30;16.97;;;;;;;3.06;73.02;101402.20;1778626;79;21182;-42
2021/03/02 09:22:15;;;;;;;37.30;19.75;;;;;;;3.07;72.98;101400.84;1779556;79;21553;-43
2021/03/02 09:24:54;;;;;;;34.03;18.73;;;;;;;3.04;72.89;101403.53;1775220;79;21130;-40
2021/03/02 09:27:23;;;;;;;29.48;16.37;;;;;;;2.93;73.13;101408.94;1774772;79;21540;-44
2021/03/02 09:29:51;;;;;;;31.30;16.70;;;;;;;2.88;73.31;101409.90;1780664;78;21264;-44
2021/03/02 09:32:29;;;;;;;37.13;18.45;;;;;;;2.89;73.42;101411.17;1773676;79;21279;-43
2021/03/02 09:35:07;;;;;;;35.08;19.42;;;;;;;2.91;73.47;101403.27;1779543;79;21141;-44
2021/03/02 09:37:38;;;;;;;31.45;17.00;;;;;;;2.94;73.50;101400.13;1778417;79;21138;-45
2021/03/02 09:40:12;;;;;;;36.85;18.75;;;;;;;3.01;73.44;101386.45;1777713;79;21585;-41
2021/03/02 09:42:41;;;;;;;29.42;16.75;;;;;;;3.03;73.29;101387.30;1779815;79;21275;-44
2021/03/02 09:45:16;;;;;;;30.75;16.90;;;;;;;3.01;73.19;101379.86;1781898;79;21130;-43
2021/03/02 09:47:45;;;;;;;28.15;13.50;;;;;;;3.02;73.22;101375.89;1780872;79;21292;-43
2021/03/02 09:50:16;;;;;;;27.15;15.63;;;;;;;3.06;73.16;101379.80;1743323;80;21906;-42
2021/03/02 09:52:52;;;;;;;34.05;16.90;;;;;;;3.06;73.04;101389.03;1741237;81;21114;-42
2021/03/02 09:55:24;;;;;;;29.30;16.75;;;;;;;3.00;73.10;101395.25;1722375;81;21308;-41
2021/03/02 09:58:10;;;;;;;32.20;16.50;;;;;;;2.96;73.28;101404.08;1719642;82;21693;-44
2021/03/02 10:00:54;;;;;;;32.33;16.45;;;;;;;2.98;73.35;101400.53;1638362;85;21197;-44
2021/03/02 10:03:25;;;;;;;30.20;15.80;;;;;;;2.97;73.42;101391.31;1644284;85;21191;-47
2021/03/02 10:06:00;;;;;;;32.03;17.17;;;;;;;3.02;73.42;101388.17;1798277;78;23099;-42
2021/03/02 10:08:39;;;;;;;28.45;16.15;;;;;;;3.00;73.48;101407.12;1774619;79;21113;-43
2021/03/02 10:11:16;;;;;;;26.85;15.70;;;;;;;3.01;73.46;101403.58;1777924;80;21153;-43
2021/03/02 10:13:59;;;;;;;30.77;16.42;;;;;;;3.09;73.44;101396.89;1774745;79;21138;-45
2021/03/02 10:16:29;;;;;;;27.17;15.38;;;;;;;3.13;73.25;101388.06;1779024;79;21164;-44
2021/03/02 10:19:20;;;;;;;30.12;17.50;;;;;;;3.13;73.07;101380.15;1779198;80;21766;-45
2021/03/02 10:21:56;;;;;;;28.15;15.78;;;;;;;3.13;73.04;101376.20;1773925;80;21500;-43
2021/03/02 10:24:30;;;;;;;28.52;15.72;;;;;;;3.14;73.06;101367.38;1776022;79;21154;-42
2021/03/02 10:27:00;;;;;;;32.15;15.88;;;;;;;3.17;72.97;101358.97;1775475;79;21121;-43
2021/03/02 10:29:29;;;;;;;26.60;15.35;;;;;;;3.17;72.81;101359.42;1777118;79;21143;-47
2021/03/02 10:31:58;;;;;;;28.35;16.85;;;;;;;3.15;72.72;101347.61;1776246;79;21140;-56
2021/03/02 10:34:25;;;;;;;25.00;14.20;;;;;;;3.15;72.61;101342.33;1731303;80;21145;-43
2021/03/02 10:36:54;;;;;;;26.60;16.40;;;;;;;3.14;72.69;101329.16;1770853;79;21139;-45
2021/03/02 10:39:22;;;;;;;25.80;16.02;;;;;;;3.12;72.60;101326.53;1776341;80;21129;-46
2021/03/02 10:41:50;;;;;;;27.87;14.83;;;;;;;3.10;72.78;101319.13;1777526;79;21153;-45
2021/03/02 10:44:17;;;;;;;26.17;13.98;;;;;;;3.15;72.77;101308.06;1746377;80;21153;-46
2021/03/02 10:46:45;;;;;;;24.72;14.65;;;;;;;3.16;72.77;101308.48;1746442;81;21138;-44
2021/03/02 10:49:13;;;;;;;28.75;16.20;;;;;;;3.19;72.63;101303.16;1694908;81;21172;-45
2021/03/02 10:51:41;;;;;;;26.85;15.50;;;;;;;3.18;72.57;101304.06;1716588;81;21174;-46
2021/03/02 10:56:55;;;;;;;27.15;15.55;;;;;;;3.29;72.57;101293.34;1895874;74;23880;-45
2021/03/02 10:59:22;;;;;;;26.87;16.25;;;;;;;3.28;72.44;101294.25;1808446;78;21887;-45
2021/03/02 11:01:51;;;;;;;22.60;13.20;;;;;;;3.29;72.41;101289.39;1794637;78;21145;-46
2021/03/02 11:04:19;;;;;;;21.95;12.63;;;;;;;3.34;72.39;101276.14;1777653;79;21161;-45
2021/03/02 11:06:47;;;;;;;23.75;13.93;;;;;;;3.40;72.31;101267.69;1777420;79;21275;-45
2021/03/02 11:09:14;;;;;;;25.12;15.05;;;;;;;3.47;72.03;101268.44;1777379;79;21656;-45
2021/03/02 11:11:43;;;;;;;23.62;14.40;;;;;;;3.48;71.67;101266.24;1780960;79;21596;-47
2021/03/02 11:14:10;;;;;;;26.42;15.88;;;;;;;3.47;71.54;101260.07;1782211;79;21165;-44
2021/03/02 11:16:38;;;;;;;20.97;12.58;;;;;;;3.45;71.56;101260.99;1782667;79;21148;-39
2021/03/02 11:19:06;;;;;;;26.77;15.53;;;;;;;3.45;71.57;101255.72;1779827;79;21125;-45
2021/03/02 11:21:35;;;;;;;26.25;15.60;;;;;;;3.45;71.56;101259.67;1778769;79;21580;-45
2021/03/02 11:24:04;;;;;;;21.33;13.00;;;;;;;3.45;71.56;101254.41;1780517;79;21979;-45
2021/03/02 11:26:33;;;;;;;27.85;14.33;;;;;;;3.47;71.56;101245.56;1777751;79;21132;-45
2021/03/02 11:29:00;;;;;;;22.80;13.50;;;;;;;3.52;71.49;101245.49;1777096;79;21576;-45
2021/03/02 11:31:28;;;;;;;23.22;12.98;;;;;;;3.55;71.31;101237.97;1780361;79;21129;-45
2021/03/02 11:33:56;;;;;;;24.15;13.38;;;;;;;3.57;71.41;101238.38;1759504;79;21128;-45
2021/03/02 11:36:24;;;;;;;21.15;13.93;;;;;;;3.61;71.13;101231.30;1757502;79;21162;-45
2021/03/02 11:38:52;;;;;;;22.02;14.93;;;;;;;3.59;71.07;101235.27;1775823;79;21294;-45
2021/03/02 11:41:20;;;;;;;26.10;15.35;;;;;;;3.57;71.13;101230.45;1780070;79;21542;-46
2021/03/02 11:43:47;;;;;;;23.83;14.30;;;;;;;3.56;70.98;101234.46;1779583;79;21165;-45
2021/03/02 11:46:18;;;;;;;21.45;13.85;;;;;;;3.55;71.10;101223.47;1778552;79;21135;-46
2021/03/02 11:48:46;;;;;;;21.80;13.78;;;;;;;3.56;71.11;101218.64;1778752;79;21117;-45
2021/03/02 11:51:14;;;;;;;21.33;12.63;;;;;;;3.60;70.96;101221.62;1776229;79;21161;-45